sensor_id;sensor_type;location;lat;lon;timestamp;P1;durP1;ratioP1;P2;durP2;ratioP2
59788;SDS011;47353;51.614;5.530;2023-09-12T00:00:54;27.25;;;20.55;;
59788;SDS011;47353;51.614;5.530;2023-09-12T00:03:20;26.55;;;21.73;;
59788;SDS011;47353;51.614;5.530;2023-09-12T00:05:51;26.42;;;20.50;;
59788;SDS011;47353;51.614;5.530;2023-09-12T00:08:17;31.52;;;22.23;;
59788;SDS011;47353;51.614;5.530;2023-09-12T00:10:43;28.88;;;21.80;;
59788;SDS011;47353;51.614;5.530;2023-09-12T00:13:08;30.75;;;21.88;;
59788;SDS011;47353;51.614;5.530;2023-09-12T00:15:34;32.78;;;22.90;;
59788;SDS011;47353;51.614;5.530;2023-09-12T00:17:59;30.83;;;22.13;;
59788;SDS011;47353;51.614;5.530;2023-09-12T00:20:24;33.85;;;23.40;;
59788;SDS011;47353;51.614;5.530;2023-09-12T00:22:50;32.80;;;22.83;;
59788;SDS011;47353;51.614;5.530;2023-09-12T00:25:15;29.38;;;22.42;;
59788;SDS011;47353;51.614;5.530;2023-09-12T00:27:41;29.33;;;22.80;;
59788;SDS011;47353;51.614;5.530;2023-09-12T00:30:07;28.33;;;22.17;;
59788;SDS011;47353;51.614;5.530;2023-09-12T00:32:32;30.23;;;21.77;;
59788;SDS011;47353;51.614;5.530;2023-09-12T00:34:58;31.45;;;22.73;;
59788;SDS011;47353;51.614;5.530;2023-09-12T00:37:23;29.52;;;22.50;;
59788;SDS011;47353;51.614;5.530;2023-09-12T00:39:48;29.60;;;22.35;;
59788;SDS011;47353;51.614;5.530;2023-09-12T00:42:14;30.23;;;23.20;;
59788;SDS011;47353;51.614;5.530;2023-09-12T00:44:39;31.63;;;22.67;;
59788;SDS011;47353;51.614;5.530;2023-09-12T00:47:04;30.98;;;22.27;;
59788;SDS011;47353;51.614;5.530;2023-09-12T00:49:30;30.85;;;22.50;;
59788;SDS011;47353;51.614;5.530;2023-09-12T00:51:57;34.28;;;22.67;;
59788;SDS011;47353;51.614;5.530;2023-09-12T00:54:23;31.05;;;23.90;;
59788;SDS011;47353;51.614;5.530;2023-09-12T00:56:49;33.00;;;23.08;;
59788;SDS011;47353;51.614;5.530;2023-09-12T00:59:15;31.95;;;23.45;;
59788;SDS011;47353;51.614;5.530;2023-09-12T01:01:43;32.00;;;22.95;;
59788;SDS011;47353;51.614;5.530;2023-09-12T01:04:09;31.55;;;22.90;;
59788;SDS011;47353;51.614;5.530;2023-09-12T01:06:35;29.50;;;22.35;;
59788;SDS011;47353;51.614;5.530;2023-09-12T01:09:02;31.08;;;23.52;;
59788;SDS011;47353;51.614;5.530;2023-09-12T01:11:27;31.60;;;23.50;;
59788;SDS011;47353;51.614;5.530;2023-09-12T01:13:53;32.22;;;23.30;;
59788;SDS011;47353;51.614;5.530;2023-09-12T01:16:18;32.35;;;24.52;;
59788;SDS011;47353;51.614;5.530;2023-09-12T01:18:44;32.10;;;24.42;;
59788;SDS011;47353;51.614;5.530;2023-09-12T01:24:24;30.52;;;23.38;;
59788;SDS011;47353;51.614;5.530;2023-09-12T01:32:21;30.42;;;23.88;;
59788;SDS011;47353;51.614;5.530;2023-09-12T01:34:46;32.45;;;23.90;;
59788;SDS011;47353;51.614;5.530;2023-09-12T01:37:12;30.85;;;22.23;;
59788;SDS011;47353;51.614;5.530;2023-09-12T01:39:38;33.10;;;23.55;;
59788;SDS011;47353;51.614;5.530;2023-09-12T01:42:03;32.17;;;23.33;;
59788;SDS011;47353;51.614;5.530;2023-09-12T01:44:30;32.78;;;23.77;;
59788;SDS011;47353;51.614;5.530;2023-09-12T01:46:58;35.28;;;23.23;;
59788;SDS011;47353;51.614;5.530;2023-09-12T01:49:27;33.05;;;23.58;;
59788;SDS011;47353;51.614;5.530;2023-09-12T01:51:54;34.78;;;23.70;;
59788;SDS011;47353;51.614;5.530;2023-09-12T01:54:20;36.25;;;26.42;;
59788;SDS011;47353;51.614;5.530;2023-09-12T01:56:46;38.40;;;25.52;;
59788;SDS011;47353;51.614;5.530;2023-09-12T01:59:12;33.25;;;23.48;;
59788;SDS011;47353;51.614;5.530;2023-09-12T02:01:38;41.40;;;27.15;;
59788;SDS011;47353;51.614;5.530;2023-09-12T02:04:04;41.72;;;27.73;;
59788;SDS011;47353;51.614;5.530;2023-09-12T02:06:33;112.47;;;57.75;;
59788;SDS011;47353;51.614;5.530;2023-09-12T02:08:59;122.03;;;62.38;;
59788;SDS011;47353;51.614;5.530;2023-09-12T02:11:26;111.65;;;54.92;;
59788;SDS011;47353;51.614;5.530;2023-09-12T02:13:52;84.93;;;47.40;;
59788;SDS011;47353;51.614;5.530;2023-09-12T02:16:17;56.83;;;35.50;;
59788;SDS011;47353;51.614;5.530;2023-09-12T02:18:42;56.63;;;33.03;;
59788;SDS011;47353;51.614;5.530;2023-09-12T02:21:08;47.88;;;32.65;;
59788;SDS011;47353;51.614;5.530;2023-09-12T02:23:33;55.10;;;34.92;;
59788;SDS011;47353;51.614;5.530;2023-09-12T02:25:58;53.70;;;33.63;;
59788;SDS011;47353;51.614;5.530;2023-09-12T02:28:24;47.47;;;31.27;;
59788;SDS011;47353;51.614;5.530;2023-09-12T02:30:49;52.35;;;34.50;;
59788;SDS011;47353;51.614;5.530;2023-09-12T02:33:15;49.00;;;31.70;;
59788;SDS011;47353;51.614;5.530;2023-09-12T02:35:40;51.03;;;31.88;;
59788;SDS011;47353;51.614;5.530;2023-09-12T02:38:07;47.58;;;32.15;;
59788;SDS011;47353;51.614;5.530;2023-09-12T02:40:32;50.15;;;31.08;;
59788;SDS011;47353;51.614;5.530;2023-09-12T02:42:58;44.20;;;29.63;;
59788;SDS011;47353;51.614;5.530;2023-09-12T02:45:23;50.85;;;32.55;;
59788;SDS011;47353;51.614;5.530;2023-09-12T02:47:49;54.17;;;34.83;;
59788;SDS011;47353;51.614;5.530;2023-09-12T02:50:14;42.25;;;28.90;;
59788;SDS011;47353;51.614;5.530;2023-09-12T02:52:39;41.65;;;28.27;;
59788;SDS011;47353;51.614;5.530;2023-09-12T02:55:05;38.90;;;28.25;;
59788;SDS011;47353;51.614;5.530;2023-09-12T02:57:31;41.50;;;28.00;;
59788;SDS011;47353;51.614;5.530;2023-09-12T02:59:58;37.78;;;26.55;;
59788;SDS011;47353;51.614;5.530;2023-09-12T03:02:23;38.25;;;26.48;;
59788;SDS011;47353;51.614;5.530;2023-09-12T03:04:49;33.88;;;25.98;;
59788;SDS011;47353;51.614;5.530;2023-09-12T03:07:14;36.38;;;25.60;;
59788;SDS011;47353;51.614;5.530;2023-09-12T03:09:40;34.38;;;23.70;;
59788;SDS011;47353;51.614;5.530;2023-09-12T03:12:05;34.00;;;24.48;;
59788;SDS011;47353;51.614;5.530;2023-09-12T03:14:31;36.97;;;24.92;;
59788;SDS011;47353;51.614;5.530;2023-09-12T03:16:56;36.45;;;26.05;;
59788;SDS011;47353;51.614;5.530;2023-09-12T03:19:22;34.88;;;25.02;;
59788;SDS011;47353;51.614;5.530;2023-09-12T03:21:47;34.13;;;25.55;;
59788;SDS011;47353;51.614;5.530;2023-09-12T03:24:12;34.08;;;25.42;;
59788;SDS011;47353;51.614;5.530;2023-09-12T03:26:38;34.80;;;25.05;;
59788;SDS011;47353;51.614;5.530;2023-09-12T03:29:03;41.45;;;26.13;;
59788;SDS011;47353;51.614;5.530;2023-09-12T03:31:30;35.35;;;25.10;;
59788;SDS011;47353;51.614;5.530;2023-09-12T03:33:55;35.22;;;25.23;;
59788;SDS011;47353;51.614;5.530;2023-09-12T03:36:21;36.17;;;25.13;;
59788;SDS011;47353;51.614;5.530;2023-09-12T03:38:46;38.20;;;26.17;;
59788;SDS011;47353;51.614;5.530;2023-09-12T03:41:12;36.13;;;24.75;;
59788;SDS011;47353;51.614;5.530;2023-09-12T03:43:37;35.03;;;24.58;;
59788;SDS011;47353;51.614;5.530;2023-09-12T03:46:03;32.58;;;25.00;;
59788;SDS011;47353;51.614;5.530;2023-09-12T03:48:28;36.63;;;24.60;;
59788;SDS011;47353;51.614;5.530;2023-09-12T03:50:56;33.22;;;24.15;;
59788;SDS011;47353;51.614;5.530;2023-09-12T03:53:22;39.15;;;26.27;;
59788;SDS011;47353;51.614;5.530;2023-09-12T03:55:48;37.33;;;25.70;;
59788;SDS011;47353;51.614;5.530;2023-09-12T03:58:13;34.78;;;25.13;;
59788;SDS011;47353;51.614;5.530;2023-09-12T04:00:38;32.38;;;22.80;;
59788;SDS011;47353;51.614;5.530;2023-09-12T04:03:04;38.15;;;26.63;;
59788;SDS011;47353;51.614;5.530;2023-09-12T04:05:29;45.25;;;27.23;;
59788;SDS011;47353;51.614;5.530;2023-09-12T04:07:55;57.30;;;35.92;;
59788;SDS011;47353;51.614;5.530;2023-09-12T04:10:20;49.80;;;31.58;;
59788;SDS011;47353;51.614;5.530;2023-09-12T04:12:46;59.47;;;35.45;;
59788;SDS011;47353;51.614;5.530;2023-09-12T04:15:11;56.13;;;34.88;;
59788;SDS011;47353;51.614;5.530;2023-09-12T04:17:37;59.70;;;37.33;;
59788;SDS011;47353;51.614;5.530;2023-09-12T04:20:02;63.05;;;37.78;;
59788;SDS011;47353;51.614;5.530;2023-09-12T04:22:29;58.42;;;36.08;;
59788;SDS011;47353;51.614;5.530;2023-09-12T04:24:55;52.72;;;34.38;;
59788;SDS011;47353;51.614;5.530;2023-09-12T04:27:20;50.22;;;32.83;;
59788;SDS011;47353;51.614;5.530;2023-09-12T04:29:46;52.45;;;33.03;;
59788;SDS011;47353;51.614;5.530;2023-09-12T04:32:11;50.33;;;32.15;;
59788;SDS011;47353;51.614;5.530;2023-09-12T04:34:37;51.05;;;31.98;;
59788;SDS011;47353;51.614;5.530;2023-09-12T04:37:02;56.60;;;33.60;;
59788;SDS011;47353;51.614;5.530;2023-09-12T04:39:28;76.43;;;42.53;;
59788;SDS011;47353;51.614;5.530;2023-09-12T04:41:55;75.65;;;41.88;;
59788;SDS011;47353;51.614;5.530;2023-09-12T04:44:20;60.20;;;37.75;;
59788;SDS011;47353;51.614;5.530;2023-09-12T04:46:45;58.85;;;35.20;;
59788;SDS011;47353;51.614;5.530;2023-09-12T04:49:11;60.20;;;34.63;;
59788;SDS011;47353;51.614;5.530;2023-09-12T04:51:36;67.18;;;38.55;;
59788;SDS011;47353;51.614;5.530;2023-09-12T04:54:02;72.75;;;39.83;;
59788;SDS011;47353;51.614;5.530;2023-09-12T04:56:27;65.60;;;38.13;;
59788;SDS011;47353;51.614;5.530;2023-09-12T04:58:53;54.95;;;33.25;;
59788;SDS011;47353;51.614;5.530;2023-09-12T05:01:19;51.85;;;30.33;;
59788;SDS011;47353;51.614;5.530;2023-09-12T05:03:44;52.28;;;30.80;;
59788;SDS011;47353;51.614;5.530;2023-09-12T05:06:10;63.33;;;34.20;;
59788;SDS011;47353;51.614;5.530;2023-09-12T05:08:37;61.85;;;33.85;;
59788;SDS011;47353;51.614;5.530;2023-09-12T05:11:02;50.55;;;30.20;;
59788;SDS011;47353;51.614;5.530;2023-09-12T05:13:28;47.38;;;29.23;;
59788;SDS011;47353;51.614;5.530;2023-09-12T05:15:54;51.08;;;28.75;;
59788;SDS011;47353;51.614;5.530;2023-09-12T05:18:19;37.00;;;23.73;;
59788;SDS011;47353;51.614;5.530;2023-09-12T05:20:44;35.67;;;24.38;;
59788;SDS011;47353;51.614;5.530;2023-09-12T05:23:10;37.30;;;24.60;;
59788;SDS011;47353;51.614;5.530;2023-09-12T05:25:36;33.67;;;23.45;;
59788;SDS011;47353;51.614;5.530;2023-09-12T05:28:01;32.53;;;22.65;;
59788;SDS011;47353;51.614;5.530;2023-09-12T05:30:27;33.38;;;22.85;;
59788;SDS011;47353;51.614;5.530;2023-09-12T05:32:53;33.00;;;22.27;;
59788;SDS011;47353;51.614;5.530;2023-09-12T05:35:18;32.30;;;22.75;;
59788;SDS011;47353;51.614;5.530;2023-09-12T05:37:44;32.85;;;22.17;;
59788;SDS011;47353;51.614;5.530;2023-09-12T05:40:09;31.25;;;22.27;;
59788;SDS011;47353;51.614;5.530;2023-09-12T05:42:35;33.92;;;24.60;;
59788;SDS011;47353;51.614;5.530;2023-09-12T05:45:00;34.88;;;23.45;;
59788;SDS011;47353;51.614;5.530;2023-09-12T05:47:26;37.90;;;24.58;;
59788;SDS011;47353;51.614;5.530;2023-09-12T05:49:52;42.40;;;26.20;;
59788;SDS011;47353;51.614;5.530;2023-09-12T05:52:17;37.97;;;25.08;;
59788;SDS011;47353;51.614;5.530;2023-09-12T05:54:44;35.97;;;24.80;;
59788;SDS011;47353;51.614;5.530;2023-09-12T05:57:09;42.60;;;26.40;;
59788;SDS011;47353;51.614;5.530;2023-09-12T05:59:36;40.13;;;25.42;;
59788;SDS011;47353;51.614;5.530;2023-09-12T06:02:03;40.75;;;25.50;;
59788;SDS011;47353;51.614;5.530;2023-09-12T06:04:30;45.88;;;25.73;;
59788;SDS011;47353;51.614;5.530;2023-09-12T06:06:56;43.70;;;25.88;;
59788;SDS011;47353;51.614;5.530;2023-09-12T06:09:22;37.38;;;24.92;;
59788;SDS011;47353;51.614;5.530;2023-09-12T06:11:47;38.97;;;24.88;;
59788;SDS011;47353;51.614;5.530;2023-09-12T06:14:13;41.10;;;26.55;;
59788;SDS011;47353;51.614;5.530;2023-09-12T06:16:38;44.17;;;25.92;;
59788;SDS011;47353;51.614;5.530;2023-09-12T06:19:03;43.90;;;26.80;;
59788;SDS011;47353;51.614;5.530;2023-09-12T06:21:29;38.85;;;26.45;;
59788;SDS011;47353;51.614;5.530;2023-09-12T06:24:10;37.42;;;23.35;;
59788;SDS011;47353;51.614;5.530;2023-09-12T06:26:37;34.67;;;23.75;;
59788;SDS011;47353;51.614;5.530;2023-09-12T06:29:03;40.33;;;25.88;;
59788;SDS011;47353;51.614;5.530;2023-09-12T06:31:29;40.53;;;26.38;;
59788;SDS011;47353;51.614;5.530;2023-09-12T06:33:55;37.35;;;25.67;;
59788;SDS011;47353;51.614;5.530;2023-09-12T06:36:20;40.67;;;25.13;;
59788;SDS011;47353;51.614;5.530;2023-09-12T06:38:46;36.90;;;24.23;;
59788;SDS011;47353;51.614;5.530;2023-09-12T06:41:11;37.67;;;24.73;;
59788;SDS011;47353;51.614;5.530;2023-09-12T06:43:36;37.45;;;24.58;;
59788;SDS011;47353;51.614;5.530;2023-09-12T06:46:02;35.75;;;24.20;;
59788;SDS011;47353;51.614;5.530;2023-09-12T06:48:27;33.72;;;24.25;;
59788;SDS011;47353;51.614;5.530;2023-09-12T06:50:53;34.90;;;24.42;;
59788;SDS011;47353;51.614;5.530;2023-09-12T06:53:19;37.08;;;24.60;;
59788;SDS011;47353;51.614;5.530;2023-09-12T06:55:45;38.25;;;23.88;;
59788;SDS011;47353;51.614;5.530;2023-09-12T06:58:10;40.90;;;24.75;;
59788;SDS011;47353;51.614;5.530;2023-09-12T07:00:36;38.80;;;25.30;;
59788;SDS011;47353;51.614;5.530;2023-09-12T07:03:01;35.55;;;23.35;;
59788;SDS011;47353;51.614;5.530;2023-09-12T07:05:27;37.15;;;24.40;;
59788;SDS011;47353;51.614;5.530;2023-09-12T07:07:52;38.40;;;24.98;;
59788;SDS011;47353;51.614;5.530;2023-09-12T07:10:18;36.03;;;23.80;;
59788;SDS011;47353;51.614;5.530;2023-09-12T07:12:43;36.88;;;24.92;;
59788;SDS011;47353;51.614;5.530;2023-09-12T07:15:09;38.38;;;23.98;;
59788;SDS011;47353;51.614;5.530;2023-09-12T07:17:35;35.50;;;24.52;;
59788;SDS011;47353;51.614;5.530;2023-09-12T07:20:00;38.15;;;22.73;;
59788;SDS011;47353;51.614;5.530;2023-09-12T07:22:26;36.42;;;24.25;;
59788;SDS011;47353;51.614;5.530;2023-09-12T07:24:51;36.45;;;23.85;;
59788;SDS011;47353;51.614;5.530;2023-09-12T07:27:16;35.95;;;23.25;;
59788;SDS011;47353;51.614;5.530;2023-09-12T07:29:42;36.65;;;23.80;;
59788;SDS011;47353;51.614;5.530;2023-09-12T07:32:07;38.03;;;24.13;;
59788;SDS011;47353;51.614;5.530;2023-09-12T07:34:33;40.90;;;25.45;;
59788;SDS011;47353;51.614;5.530;2023-09-12T07:36:58;40.75;;;25.50;;
59788;SDS011;47353;51.614;5.530;2023-09-12T07:39:23;36.25;;;23.92;;
59788;SDS011;47353;51.614;5.530;2023-09-12T07:41:49;38.92;;;25.27;;
59788;SDS011;47353;51.614;5.530;2023-09-12T07:44:15;37.03;;;24.02;;
59788;SDS011;47353;51.614;5.530;2023-09-12T07:46:41;35.63;;;23.55;;
59788;SDS011;47353;51.614;5.530;2023-09-12T07:49:07;30.17;;;20.38;;
59788;SDS011;47353;51.614;5.530;2023-09-12T07:51:34;31.13;;;20.25;;
59788;SDS011;47353;51.614;5.530;2023-09-12T07:54:00;32.13;;;20.23;;
59788;SDS011;47353;51.614;5.530;2023-09-12T07:56:26;37.90;;;24.17;;
59788;SDS011;47353;51.614;5.530;2023-09-12T07:58:52;41.30;;;24.75;;
59788;SDS011;47353;51.614;5.530;2023-09-12T08:01:17;34.03;;;22.17;;
59788;SDS011;47353;51.614;5.530;2023-09-12T08:03:42;30.23;;;20.52;;
59788;SDS011;47353;51.614;5.530;2023-09-12T08:06:08;32.42;;;21.02;;
59788;SDS011;47353;51.614;5.530;2023-09-12T08:08:34;27.30;;;19.35;;
59788;SDS011;47353;51.614;5.530;2023-09-12T08:11:00;21.90;;;16.33;;
59788;SDS011;47353;51.614;5.530;2023-09-12T08:13:26;23.67;;;16.63;;
59788;SDS011;47353;51.614;5.530;2023-09-12T08:15:53;23.15;;;17.02;;
59788;SDS011;47353;51.614;5.530;2023-09-12T08:18:18;16.50;;;12.50;;
59788;SDS011;47353;51.614;5.530;2023-09-12T08:20:44;13.15;;;11.23;;
59788;SDS011;47353;51.614;5.530;2023-09-12T08:23:09;18.88;;;14.13;;
59788;SDS011;47353;51.614;5.530;2023-09-12T08:25:35;16.60;;;13.10;;
59788;SDS011;47353;51.614;5.530;2023-09-12T08:28:00;18.67;;;13.88;;
59788;SDS011;47353;51.614;5.530;2023-09-12T08:30:26;13.75;;;12.23;;
59788;SDS011;47353;51.614;5.530;2023-09-12T08:32:54;20.02;;;13.65;;
59788;SDS011;47353;51.614;5.530;2023-09-12T08:35:20;18.73;;;14.35;;
59788;SDS011;47353;51.614;5.530;2023-09-12T08:37:45;16.88;;;14.25;;
59788;SDS011;47353;51.614;5.530;2023-09-12T08:40:11;15.52;;;13.80;;
59788;SDS011;47353;51.614;5.530;2023-09-12T08:42:43;16.48;;;13.10;;
59788;SDS011;47353;51.614;5.530;2023-09-12T08:45:13;18.13;;;12.90;;
59788;SDS011;47353;51.614;5.530;2023-09-12T08:47:41;15.35;;;12.82;;
59788;SDS011;47353;51.614;5.530;2023-09-12T08:50:09;15.13;;;12.13;;
59788;SDS011;47353;51.614;5.530;2023-09-12T08:52:37;14.02;;;11.05;;
59788;SDS011;47353;51.614;5.530;2023-09-12T08:55:03;13.02;;;10.43;;
59788;SDS011;47353;51.614;5.530;2023-09-12T08:57:29;11.90;;;9.82;;
59788;SDS011;47353;51.614;5.530;2023-09-12T08:59:57;12.13;;;9.23;;
59788;SDS011;47353;51.614;5.530;2023-09-12T09:02:27;10.60;;;9.25;;
59788;SDS011;47353;51.614;5.530;2023-09-12T09:04:53;12.23;;;9.15;;
59788;SDS011;47353;51.614;5.530;2023-09-12T09:07:20;10.32;;;8.77;;
59788;SDS011;47353;51.614;5.530;2023-09-12T09:09:46;12.52;;;10.00;;
59788;SDS011;47353;51.614;5.530;2023-09-12T09:12:16;10.30;;;9.20;;
59788;SDS011;47353;51.614;5.530;2023-09-12T09:14:41;13.48;;;11.07;;
59788;SDS011;47353;51.614;5.530;2023-09-12T09:17:07;15.23;;;10.98;;
59788;SDS011;47353;51.614;5.530;2023-09-12T09:19:42;13.75;;;11.20;;
59788;SDS011;47353;51.614;5.530;2023-09-12T09:22:09;13.75;;;11.88;;
59788;SDS011;47353;51.614;5.530;2023-09-12T09:24:35;12.88;;;9.55;;
59788;SDS011;47353;51.614;5.530;2023-09-12T09:27:01;11.40;;;9.32;;
59788;SDS011;47353;51.614;5.530;2023-09-12T09:29:26;13.70;;;10.35;;
59788;SDS011;47353;51.614;5.530;2023-09-12T09:31:58;12.27;;;8.93;;
59788;SDS011;47353;51.614;5.530;2023-09-12T09:34:25;11.30;;;9.00;;
59788;SDS011;47353;51.614;5.530;2023-09-12T09:36:53;12.73;;;10.00;;
59788;SDS011;47353;51.614;5.530;2023-09-12T09:39:21;11.05;;;8.35;;
59788;SDS011;47353;51.614;5.530;2023-09-12T09:41:48;12.20;;;9.50;;
59788;SDS011;47353;51.614;5.530;2023-09-12T09:44:15;10.43;;;8.35;;
59788;SDS011;47353;51.614;5.530;2023-09-12T09:46:44;9.40;;;7.57;;
59788;SDS011;47353;51.614;5.530;2023-09-12T09:49:11;13.13;;;9.43;;
59788;SDS011;47353;51.614;5.530;2023-09-12T09:51:42;8.52;;;7.20;;
59788;SDS011;47353;51.614;5.530;2023-09-12T09:54:08;11.25;;;7.63;;
59788;SDS011;47353;51.614;5.530;2023-09-12T09:56:56;9.77;;;7.78;;
59788;SDS011;47353;51.614;5.530;2023-09-12T09:59:21;9.82;;;6.93;;
59788;SDS011;47353;51.614;5.530;2023-09-12T10:01:51;10.32;;;7.47;;
59788;SDS011;47353;51.614;5.530;2023-09-12T10:04:21;11.95;;;7.40;;
59788;SDS011;47353;51.614;5.530;2023-09-12T10:06:47;8.70;;;7.80;;
59788;SDS011;47353;51.614;5.530;2023-09-12T10:09:14;10.15;;;7.75;;
59788;SDS011;47353;51.614;5.530;2023-09-12T10:11:42;8.20;;;7.25;;
59788;SDS011;47353;51.614;5.530;2023-09-12T10:14:11;10.70;;;7.32;;
59788;SDS011;47353;51.614;5.530;2023-09-12T10:16:49;7.57;;;6.53;;
59788;SDS011;47353;51.614;5.530;2023-09-12T10:19:29;7.85;;;6.25;;
59788;SDS011;47353;51.614;5.530;2023-09-12T10:24:35;11.52;;;9.35;;
59788;SDS011;47353;51.614;5.530;2023-09-12T10:27:01;11.75;;;9.75;;
59788;SDS011;47353;51.614;5.530;2023-09-12T10:29:29;11.00;;;8.18;;
59788;SDS011;47353;51.614;5.530;2023-09-12T10:31:55;12.05;;;8.82;;
59788;SDS011;47353;51.614;5.530;2023-09-12T10:34:21;10.60;;;7.80;;
59788;SDS011;47353;51.614;5.530;2023-09-12T10:36:49;10.75;;;8.55;;
59788;SDS011;47353;51.614;5.530;2023-09-12T10:39:16;12.27;;;8.55;;
59788;SDS011;47353;51.614;5.530;2023-09-12T10:41:44;13.20;;;8.95;;
59788;SDS011;47353;51.614;5.530;2023-09-12T10:44:12;9.55;;;7.75;;
59788;SDS011;47353;51.614;5.530;2023-09-12T10:46:41;10.98;;;8.55;;
59788;SDS011;47353;51.614;5.530;2023-09-12T10:49:08;8.93;;;7.30;;
59788;SDS011;47353;51.614;5.530;2023-09-12T10:51:43;8.77;;;7.03;;
59788;SDS011;47353;51.614;5.530;2023-09-12T10:54:14;10.13;;;7.93;;
59788;SDS011;47353;51.614;5.530;2023-09-12T10:56:41;11.57;;;8.23;;
59788;SDS011;47353;51.614;5.530;2023-09-12T11:01:42;8.40;;;6.65;;
59788;SDS011;47353;51.614;5.530;2023-09-12T11:06:46;8.25;;;6.05;;
59788;SDS011;47353;51.614;5.530;2023-09-12T11:09:25;7.75;;;6.95;;
59788;SDS011;47353;51.614;5.530;2023-09-12T11:11:58;8.52;;;7.18;;
59788;SDS011;47353;51.614;5.530;2023-09-12T11:14:27;8.15;;;7.20;;
59788;SDS011;47353;51.614;5.530;2023-09-12T11:19:46;7.72;;;5.53;;
59788;SDS011;47353;51.614;5.530;2023-09-12T11:22:23;5.70;;;5.10;;
59788;SDS011;47353;51.614;5.530;2023-09-12T11:24:54;7.10;;;5.60;;
59788;SDS011;47353;51.614;5.530;2023-09-12T11:27:21;7.35;;;5.90;;
59788;SDS011;47353;51.614;5.530;2023-09-12T11:29:48;7.18;;;5.43;;
59788;SDS011;47353;51.614;5.530;2023-09-12T11:32:29;7.32;;;6.07;;
59788;SDS011;47353;51.614;5.530;2023-09-12T11:34:56;6.75;;;4.70;;
59788;SDS011;47353;51.614;5.530;2023-09-12T11:37:22;6.38;;;5.07;;
59788;SDS011;47353;51.614;5.530;2023-09-12T11:39:51;7.57;;;6.75;;
59788;SDS011;47353;51.614;5.530;2023-09-12T11:42:18;7.25;;;6.38;;
59788;SDS011;47353;51.614;5.530;2023-09-12T11:44:43;8.07;;;6.20;;
59788;SDS011;47353;51.614;5.530;2023-09-12T11:47:12;9.88;;;6.70;;
59788;SDS011;47353;51.614;5.530;2023-09-12T11:49:38;6.35;;;5.18;;
59788;SDS011;47353;51.614;5.530;2023-09-12T11:52:12;6.85;;;5.80;;
59788;SDS011;47353;51.614;5.530;2023-09-12T11:54:40;7.32;;;5.97;;
59788;SDS011;47353;51.614;5.530;2023-09-12T11:57:09;7.15;;;5.63;;
59788;SDS011;47353;51.614;5.530;2023-09-12T11:59:38;7.68;;;6.93;;
59788;SDS011;47353;51.614;5.530;2023-09-12T12:02:08;9.65;;;7.53;;
59788;SDS011;47353;51.614;5.530;2023-09-12T12:04:34;8.43;;;6.32;;
59788;SDS011;47353;51.614;5.530;2023-09-12T12:07:01;7.93;;;7.10;;
59788;SDS011;47353;51.614;5.530;2023-09-12T12:09:29;8.85;;;6.80;;
59788;SDS011;47353;51.614;5.530;2023-09-12T12:11:54;9.82;;;7.00;;
59788;SDS011;47353;51.614;5.530;2023-09-12T12:14:20;8.88;;;6.80;;
59788;SDS011;47353;51.614;5.530;2023-09-12T12:16:46;9.43;;;7.68;;
59788;SDS011;47353;51.614;5.530;2023-09-12T12:19:12;9.35;;;6.45;;
59788;SDS011;47353;51.614;5.530;2023-09-12T12:21:39;9.18;;;6.50;;
59788;SDS011;47353;51.614;5.530;2023-09-12T12:24:13;7.55;;;6.40;;
59788;SDS011;47353;51.614;5.530;2023-09-12T12:26:43;7.75;;;6.00;;
59788;SDS011;47353;51.614;5.530;2023-09-12T12:29:09;7.32;;;5.80;;
59788;SDS011;47353;51.614;5.530;2023-09-12T12:31:35;6.22;;;5.03;;
59788;SDS011;47353;51.614;5.530;2023-09-12T12:34:01;7.78;;;5.35;;
59788;SDS011;47353;51.614;5.530;2023-09-12T12:36:27;7.18;;;5.50;;
59788;SDS011;47353;51.614;5.530;2023-09-12T12:38:52;6.20;;;4.50;;
59788;SDS011;47353;51.614;5.530;2023-09-12T12:41:28;4.45;;;3.83;;
59788;SDS011;47353;51.614;5.530;2023-09-12T12:43:57;4.90;;;2.95;;
59788;SDS011;47353;51.614;5.530;2023-09-12T12:46:26;5.35;;;4.07;;
59788;SDS011;47353;51.614;5.530;2023-09-12T12:48:51;6.22;;;4.68;;
59788;SDS011;47353;51.614;5.530;2023-09-12T12:51:18;7.43;;;5.18;;
59788;SDS011;47353;51.614;5.530;2023-09-12T12:53:48;6.13;;;4.55;;
59788;SDS011;47353;51.614;5.530;2023-09-12T12:56:19;5.95;;;4.40;;
59788;SDS011;47353;51.614;5.530;2023-09-12T12:58:56;5.53;;;4.10;;
59788;SDS011;47353;51.614;5.530;2023-09-12T13:01:24;5.57;;;3.30;;
59788;SDS011;47353;51.614;5.530;2023-09-12T13:03:49;6.25;;;4.20;;
59788;SDS011;47353;51.614;5.530;2023-09-12T13:06:15;5.15;;;3.50;;
59788;SDS011;47353;51.614;5.530;2023-09-12T13:08:45;4.57;;;3.53;;
59788;SDS011;47353;51.614;5.530;2023-09-12T13:11:13;4.75;;;3.67;;
59788;SDS011;47353;51.614;5.530;2023-09-12T13:13:39;7.15;;;4.47;;
59788;SDS011;47353;51.614;5.530;2023-09-12T13:16:06;4.93;;;4.10;;
59788;SDS011;47353;51.614;5.530;2023-09-12T13:18:36;8.45;;;5.28;;
59788;SDS011;47353;51.614;5.530;2023-09-12T13:21:03;6.28;;;4.80;;
59788;SDS011;47353;51.614;5.530;2023-09-12T13:23:29;4.90;;;4.32;;
59788;SDS011;47353;51.614;5.530;2023-09-12T13:25:55;4.70;;;4.20;;
59788;SDS011;47353;51.614;5.530;2023-09-12T13:28:22;6.65;;;5.25;;
59788;SDS011;47353;51.614;5.530;2023-09-12T13:30:53;7.40;;;5.07;;
59788;SDS011;47353;51.614;5.530;2023-09-12T13:33:19;6.38;;;5.40;;
59788;SDS011;47353;51.614;5.530;2023-09-12T13:35:48;7.40;;;5.60;;
59788;SDS011;47353;51.614;5.530;2023-09-12T13:38:15;6.07;;;4.88;;
59788;SDS011;47353;51.614;5.530;2023-09-12T13:40:42;6.15;;;5.55;;
59788;SDS011;47353;51.614;5.530;2023-09-12T13:43:09;6.65;;;5.22;;
59788;SDS011;47353;51.614;5.530;2023-09-12T13:45:35;6.82;;;5.20;;
59788;SDS011;47353;51.614;5.530;2023-09-12T13:48:01;6.43;;;5.20;;
59788;SDS011;47353;51.614;5.530;2023-09-12T13:50:28;8.18;;;5.50;;
59788;SDS011;47353;51.614;5.530;2023-09-12T13:52:54;6.70;;;4.65;;
59788;SDS011;47353;51.614;5.530;2023-09-12T13:55:24;5.53;;;5.03;;
59788;SDS011;47353;51.614;5.530;2023-09-12T13:57:50;7.70;;;5.72;;
59788;SDS011;47353;51.614;5.530;2023-09-12T14:00:16;5.10;;;4.43;;
59788;SDS011;47353;51.614;5.530;2023-09-12T14:02:41;5.90;;;4.57;;
59788;SDS011;47353;51.614;5.530;2023-09-12T14:05:07;4.95;;;4.40;;
59788;SDS011;47353;51.614;5.530;2023-09-12T14:07:32;6.45;;;4.32;;
59788;SDS011;47353;51.614;5.530;2023-09-12T14:09:58;6.05;;;4.60;;
59788;SDS011;47353;51.614;5.530;2023-09-12T14:12:23;5.50;;;3.97;;
59788;SDS011;47353;51.614;5.530;2023-09-12T14:14:50;5.57;;;4.47;;
59788;SDS011;47353;51.614;5.530;2023-09-12T14:17:16;6.35;;;4.43;;
59788;SDS011;47353;51.614;5.530;2023-09-12T14:19:42;5.55;;;4.50;;
59788;SDS011;47353;51.614;5.530;2023-09-12T14:22:07;5.30;;;4.57;;
59788;SDS011;47353;51.614;5.530;2023-09-12T14:24:33;5.18;;;4.68;;
59788;SDS011;47353;51.614;5.530;2023-09-12T14:26:58;7.30;;;4.82;;
59788;SDS011;47353;51.614;5.530;2023-09-12T14:29:23;6.22;;;5.25;;
59788;SDS011;47353;51.614;5.530;2023-09-12T14:31:52;6.78;;;5.13;;
59788;SDS011;47353;51.614;5.530;2023-09-12T14:34:23;7.63;;;5.18;;
59788;SDS011;47353;51.614;5.530;2023-09-12T14:36:51;5.60;;;5.00;;
59788;SDS011;47353;51.614;5.530;2023-09-12T14:39:17;6.93;;;5.35;;
59788;SDS011;47353;51.614;5.530;2023-09-12T14:41:42;6.53;;;4.50;;
59788;SDS011;47353;51.614;5.530;2023-09-12T14:44:09;5.30;;;4.60;;
59788;SDS011;47353;51.614;5.530;2023-09-12T14:46:34;5.78;;;4.55;;